sensor_id;sensor_type;location;lat;lon;timestamp;pressure;altitude;pressure_sealevel;temperature
38114;BMP180;23926;53.222;6.354;2024-02-21T00:00:04;101733.00;;;12.30
38114;BMP180;23926;53.222;6.354;2024-02-21T00:02:30;101727.00;;;12.20
38114;BMP180;23926;53.222;6.354;2024-02-21T00:04:56;101727.00;;;12.30
38114;BMP180;23926;53.222;6.354;2024-02-21T00:07:21;101725.00;;;12.40
38114;BMP180;23926;53.222;6.354;2024-02-21T00:09:46;101736.00;;;12.20
38114;BMP180;23926;53.222;6.354;2024-02-21T00:12:12;101724.00;;;12.30
38114;BMP180;23926;53.222;6.354;2024-02-21T00:14:39;101711.00;;;12.20
38114;BMP180;23926;53.222;6.354;2024-02-21T00:17:05;101705.00;;;12.30
38114;BMP180;23926;53.222;6.354;2024-02-21T00:19:31;101700.00;;;12.30
38114;BMP180;23926;53.222;6.354;2024-02-21T00:21:56;101697.00;;;12.20
38114;BMP180;23926;53.222;6.354;2024-02-21T00:24:21;101722.00;;;12.10
38114;BMP180;23926;53.222;6.354;2024-02-21T00:26:47;101714.00;;;12.10
38114;BMP180;23926;53.222;6.354;2024-02-21T00:29:12;101706.00;;;12.20
38114;BMP180;23926;53.222;6.354;2024-02-21T00:31:37;101684.00;;;12.20
38114;BMP180;23926;53.222;6.354;2024-02-21T00:34:03;101682.00;;;12.10
38114;BMP180;23926;53.222;6.354;2024-02-21T00:36:28;101678.00;;;12.20
38114;BMP180;23926;53.222;6.354;2024-02-21T00:38:53;101660.00;;;12.10
38114;BMP180;23926;53.222;6.354;2024-02-21T00:41:19;101661.00;;;12.00
38114;BMP180;23926;53.222;6.354;2024-02-21T00:43:44;101666.00;;;12.00
38114;BMP180;23926;53.222;6.354;2024-02-21T00:46:10;101652.00;;;12.10
38114;BMP180;23926;53.222;6.354;2024-02-21T00:48:35;101657.00;;;12.00
38114;BMP180;23926;53.222;6.354;2024-02-21T00:51:00;101661.00;;;12.10
38114;BMP180;23926;53.222;6.354;2024-02-21T00:53:26;101655.00;;;12.20
38114;BMP180;23926;53.222;6.354;2024-02-21T00:55:51;101658.00;;;12.10
38114;BMP180;23926;53.222;6.354;2024-02-21T00:58:16;101667.00;;;12.20
38114;BMP180;23926;53.222;6.354;2024-02-21T01:00:42;101655.00;;;12.30
38114;BMP180;23926;53.222;6.354;2024-02-21T01:03:07;101655.00;;;12.20
38114;BMP180;23926;53.222;6.354;2024-02-21T01:05:33;101646.00;;;12.10
38114;BMP180;23926;53.222;6.354;2024-02-21T01:07:58;101664.00;;;12.10
38114;BMP180;23926;53.222;6.354;2024-02-21T01:10:23;101664.00;;;12.20
38114;BMP180;23926;53.222;6.354;2024-02-21T01:12:49;101659.00;;;12.40
38114;BMP180;23926;53.222;6.354;2024-02-21T01:15:14;101661.00;;;12.20
38114;BMP180;23926;53.222;6.354;2024-02-21T01:17:39;101658.00;;;12.20
38114;BMP180;23926;53.222;6.354;2024-02-21T01:20:06;101649.00;;;12.30
38114;BMP180;23926;53.222;6.354;2024-02-21T01:22:32;101662.00;;;12.00
38114;BMP180;23926;53.222;6.354;2024-02-21T01:24:58;101657.00;;;12.00
38114;BMP180;23926;53.222;6.354;2024-02-21T01:27:23;101623.00;;;11.90
38114;BMP180;23926;53.222;6.354;2024-02-21T01:29:48;101647.00;;;11.90
38114;BMP180;23926;53.222;6.354;2024-02-21T01:32:15;101630.00;;;11.90
38114;BMP180;23926;53.222;6.354;2024-02-21T01:34:40;101649.00;;;11.80
38114;BMP180;23926;53.222;6.354;2024-02-21T01:37:06;101628.00;;;11.80
38114;BMP180;23926;53.222;6.354;2024-02-21T01:39:33;101630.00;;;11.90
38114;BMP180;23926;53.222;6.354;2024-02-21T01:41:58;101629.00;;;11.80
38114;BMP180;23926;53.222;6.354;2024-02-21T01:44:24;101635.00;;;11.70
38114;BMP180;23926;53.222;6.354;2024-02-21T01:46:50;101633.00;;;11.70
38114;BMP180;23926;53.222;6.354;2024-02-21T01:49:17;101634.00;;;11.60
38114;BMP180;23926;53.222;6.354;2024-02-21T01:51:42;101647.00;;;11.80
38114;BMP180;23926;53.222;6.354;2024-02-21T01:54:08;101631.00;;;11.70
38114;BMP180;23926;53.222;6.354;2024-02-21T01:56:33;101628.00;;;11.70
38114;BMP180;23926;53.222;6.354;2024-02-21T01:58:59;101617.00;;;11.70
38114;BMP180;23926;53.222;6.354;2024-02-21T02:01:25;101622.00;;;11.70
38114;BMP180;23926;53.222;6.354;2024-02-21T02:03:50;101618.00;;;11.80
38114;BMP180;23926;53.222;6.354;2024-02-21T02:06:16;101633.00;;;11.80
38114;BMP180;23926;53.222;6.354;2024-02-21T02:08:42;101621.00;;;11.60
38114;BMP180;23926;53.222;6.354;2024-02-21T02:11:07;101605.00;;;11.70
38114;BMP180;23926;53.222;6.354;2024-02-21T02:13:33;101618.00;;;11.70
38114;BMP180;23926;53.222;6.354;2024-02-21T02:15:58;101597.00;;;11.70
38114;BMP180;23926;53.222;6.354;2024-02-21T02:18:23;101604.00;;;11.80
38114;BMP180;23926;53.222;6.354;2024-02-21T02:20:49;101628.00;;;12.00
38114;BMP180;23926;53.222;6.354;2024-02-21T02:23:19;101625.00;;;11.70
38114;BMP180;23926;53.222;6.354;2024-02-21T02:25:45;101621.00;;;11.60
38114;BMP180;23926;53.222;6.354;2024-02-21T02:28:14;101613.00;;;11.70
38114;BMP180;23926;53.222;6.354;2024-02-21T02:30:39;101618.00;;;11.80
38114;BMP180;23926;53.222;6.354;2024-02-21T02:33:05;101601.00;;;11.70
38114;BMP180;23926;53.222;6.354;2024-02-21T02:35:31;101588.00;;;11.80
38114;BMP180;23926;53.222;6.354;2024-02-21T02:37:57;101599.00;;;11.80
38114;BMP180;23926;53.222;6.354;2024-02-21T02:40:23;101590.00;;;11.90
38114;BMP180;23926;53.222;6.354;2024-02-21T02:42:49;101590.00;;;11.80
38114;BMP180;23926;53.222;6.354;2024-02-21T02:45:18;101577.00;;;12.00
38114;BMP180;23926;53.222;6.354;2024-02-21T02:47:47;101577.00;;;11.90
38114;BMP180;23926;53.222;6.354;2024-02-21T02:50:12;101583.00;;;11.80
38114;BMP180;23926;53.222;6.354;2024-02-21T02:52:38;101586.00;;;11.80
38114;BMP180;23926;53.222;6.354;2024-02-21T02:55:04;101559.00;;;11.80
38114;BMP180;23926;53.222;6.354;2024-02-21T02:57:30;101569.00;;;11.90
38114;BMP180;23926;53.222;6.354;2024-02-21T02:59:55;101557.00;;;11.90
38114;BMP180;23926;53.222;6.354;2024-02-21T03:02:21;101568.00;;;11.90
38114;BMP180;23926;53.222;6.354;2024-02-21T03:04:46;101565.00;;;11.90
38114;BMP180;23926;53.222;6.354;2024-02-21T03:07:11;101570.00;;;12.00
38114;BMP180;23926;53.222;6.354;2024-02-21T03:09:37;101572.00;;;12.10
38114;BMP180;23926;53.222;6.354;2024-02-21T03:12:04;101559.00;;;12.10
38114;BMP180;23926;53.222;6.354;2024-02-21T03:14:30;101572.00;;;12.10
38114;BMP180;23926;53.222;6.354;2024-02-21T03:16:58;101574.00;;;12.00
38114;BMP180;23926;53.222;6.354;2024-02-21T03:19:25;101573.00;;;12.20
38114;BMP180;23926;53.222;6.354;2024-02-21T03:21:51;101573.00;;;11.80
38114;BMP180;23926;53.222;6.354;2024-02-21T03:24:16;101582.00;;;11.90
38114;BMP180;23926;53.222;6.354;2024-02-21T03:26:42;101574.00;;;11.80
38114;BMP180;23926;53.222;6.354;2024-02-21T03:29:08;101566.00;;;12.10
38114;BMP180;23926;53.222;6.354;2024-02-21T03:31:37;101569.00;;;11.90
38114;BMP180;23926;53.222;6.354;2024-02-21T03:34:02;101558.00;;;11.90
38114;BMP180;23926;53.222;6.354;2024-02-21T03:36:28;101567.00;;;12.00
38114;BMP180;23926;53.222;6.354;2024-02-21T03:38:56;101571.00;;;11.90
38114;BMP180;23926;53.222;6.354;2024-02-21T03:41:22;101557.00;;;12.00
38114;BMP180;23926;53.222;6.354;2024-02-21T03:43:47;101567.00;;;12.00
38114;BMP180;23926;53.222;6.354;2024-02-21T03:46:14;101573.00;;;12.00
38114;BMP180;23926;53.222;6.354;2024-02-21T03:48:39;101571.00;;;12.00
38114;BMP180;23926;53.222;6.354;2024-02-21T03:51:05;101557.00;;;12.00
38114;BMP180;23926;53.222;6.354;2024-02-21T03:53:30;101551.00;;;12.10
38114;BMP180;23926;53.222;6.354;2024-02-21T03:55:55;101542.00;;;12.10
38114;BMP180;23926;53.222;6.354;2024-02-21T03:58:21;101545.00;;;12.00
38114;BMP180;23926;53.222;6.354;2024-02-21T04:00:47;101545.00;;;12.00
38114;BMP180;23926;53.222;6.354;2024-02-21T04:03:13;101532.00;;;12.00
38114;BMP180;23926;53.222;6.354;2024-02-21T04:05:38;101539.00;;;12.10
38114;BMP180;23926;53.222;6.354;2024-02-21T04:08:05;101546.00;;;11.80
38114;BMP180;23926;53.222;6.354;2024-02-21T04:10:30;101538.00;;;11.90
38114;BMP180;23926;53.222;6.354;2024-02-21T04:12:55;101545.00;;;11.90
38114;BMP180;23926;53.222;6.354;2024-02-21T04:15:21;101543.00;;;12.00
38114;BMP180;23926;53.222;6.354;2024-02-21T04:17:46;101548.00;;;12.00
38114;BMP180;23926;53.222;6.354;2024-02-21T04:20:16;101545.00;;;12.00
38114;BMP180;23926;53.222;6.354;2024-02-21T04:22:44;101539.00;;;12.00
38114;BMP180;23926;53.222;6.354;2024-02-21T04:25:10;101540.00;;;12.00
38114;BMP180;23926;53.222;6.354;2024-02-21T04:27:37;101541.00;;;12.10
38114;BMP180;23926;53.222;6.354;2024-02-21T04:30:03;101549.00;;;12.00
38114;BMP180;23926;53.222;6.354;2024-02-21T04:32:29;101539.00;;;12.30
38114;BMP180;23926;53.222;6.354;2024-02-21T04:34:54;101534.00;;;12.00
38114;BMP180;23926;53.222;6.354;2024-02-21T04:37:20;101529.00;;;12.10
38114;BMP180;23926;53.222;6.354;2024-02-21T04:39:45;101537.00;;;12.10
38114;BMP180;23926;53.222;6.354;2024-02-21T04:42:11;101513.00;;;12.20
38114;BMP180;23926;53.222;6.354;2024-02-21T04:44:37;101527.00;;;12.20
38114;BMP180;23926;53.222;6.354;2024-02-21T04:47:03;101523.00;;;12.30
38114;BMP180;23926;53.222;6.354;2024-02-21T04:49:29;101520.00;;;12.10
38114;BMP180;23926;53.222;6.354;2024-02-21T04:51:54;101505.00;;;12.20
38114;BMP180;23926;53.222;6.354;2024-02-21T04:54:20;101515.00;;;12.10
38114;BMP180;23926;53.222;6.354;2024-02-21T04:56:45;101495.00;;;12.10
38114;BMP180;23926;53.222;6.354;2024-02-21T04:59:10;101501.00;;;12.10
38114;BMP180;23926;53.222;6.354;2024-02-21T05:01:36;101508.00;;;12.20
38114;BMP180;23926;53.222;6.354;2024-02-21T05:04:01;101510.00;;;12.20
38114;BMP180;23926;53.222;6.354;2024-02-21T05:06:27;101511.00;;;12.40
38114;BMP180;23926;53.222;6.354;2024-02-21T05:08:53;101507.00;;;12.40
38114;BMP180;23926;53.222;6.354;2024-02-21T05:11:20;101495.00;;;12.30
38114;BMP180;23926;53.222;6.354;2024-02-21T05:13:46;101492.00;;;12.30
38114;BMP180;23926;53.222;6.354;2024-02-21T05:16:11;101510.00;;;12.40
38114;BMP180;23926;53.222;6.354;2024-02-21T05:18:36;101499.00;;;12.40
38114;BMP180;23926;53.222;6.354;2024-02-21T05:21:02;101500.00;;;12.30
38114;BMP180;23926;53.222;6.354;2024-02-21T05:23:27;101495.00;;;12.30
38114;BMP180;23926;53.222;6.354;2024-02-21T05:25:52;101490.00;;;12.30
38114;BMP180;23926;53.222;6.354;2024-02-21T05:28:18;101501.00;;;12.30
38114;BMP180;23926;53.222;6.354;2024-02-21T05:30:43;101504.00;;;12.30
38114;BMP180;23926;53.222;6.354;2024-02-21T05:33:09;101493.00;;;12.30
38114;BMP180;23926;53.222;6.354;2024-02-21T05:35:35;101495.00;;;12.30
38114;BMP180;23926;53.222;6.354;2024-02-21T05:38:01;101490.00;;;12.30
38114;BMP180;23926;53.222;6.354;2024-02-21T05:40:29;101477.00;;;12.30
38114;BMP180;23926;53.222;6.354;2024-02-21T05:42:54;101484.00;;;12.50
38114;BMP180;23926;53.222;6.354;2024-02-21T05:45:20;101482.00;;;12.30
38114;BMP180;23926;53.222;6.354;2024-02-21T05:47:45;101479.00;;;12.40
38114;BMP180;23926;53.222;6.354;2024-02-21T05:50:11;101464.00;;;12.30
38114;BMP180;23926;53.222;6.354;2024-02-21T05:52:36;101458.00;;;12.20
38114;BMP180;23926;53.222;6.354;2024-02-21T05:55:01;101469.00;;;12.20
38114;BMP180;23926;53.222;6.354;2024-02-21T05:57:27;101462.00;;;12.30
38114;BMP180;23926;53.222;6.354;2024-02-21T05:59:52;101448.00;;;12.40
38114;BMP180;23926;53.222;6.354;2024-02-21T06:02:18;101449.00;;;12.30
38114;BMP180;23926;53.222;6.354;2024-02-21T06:04:43;101454.00;;;12.20
38114;BMP180;23926;53.222;6.354;2024-02-21T06:07:09;101453.00;;;12.20
38114;BMP180;23926;53.222;6.354;2024-02-21T06:09:35;101452.00;;;12.30
38114;BMP180;23926;53.222;6.354;2024-02-21T06:12:00;101441.00;;;12.30
38114;BMP180;23926;53.222;6.354;2024-02-21T06:14:26;101446.00;;;12.30
38114;BMP180;23926;53.222;6.354;2024-02-21T06:16:51;101442.00;;;12.30
38114;BMP180;23926;53.222;6.354;2024-02-21T06:19:16;101438.00;;;12.30
38114;BMP180;23926;53.222;6.354;2024-02-21T06:21:42;101431.00;;;12.30
38114;BMP180;23926;53.222;6.354;2024-02-21T06:24:07;101434.00;;;12.30
38114;BMP180;23926;53.222;6.354;2024-02-21T06:26:32;101436.00;;;12.20
38114;BMP180;23926;53.222;6.354;2024-02-21T06:28:58;101417.00;;;12.40
38114;BMP180;23926;53.222;6.354;2024-02-21T06:31:25;101436.00;;;12.50
38114;BMP180;23926;53.222;6.354;2024-02-21T06:33:50;101434.00;;;12.30
38114;BMP180;23926;53.222;6.354;2024-02-21T06:36:15;101451.00;;;12.40
38114;BMP180;23926;53.222;6.354;2024-02-21T06:38:41;101438.00;;;12.40
38114;BMP180;23926;53.222;6.354;2024-02-21T06:41:14;101444.00;;;12.50
38114;BMP180;23926;53.222;6.354;2024-02-21T06:43:40;101431.00;;;12.50
38114;BMP180;23926;53.222;6.354;2024-02-21T06:46:05;101435.00;;;12.50
38114;BMP180;23926;53.222;6.354;2024-02-21T06:48:30;101432.00;;;12.40
38114;BMP180;23926;53.222;6.354;2024-02-21T06:50:56;101432.00;;;12.50
38114;BMP180;23926;53.222;6.354;2024-02-21T06:53:21;101426.00;;;12.50
38114;BMP180;23926;53.222;6.354;2024-02-21T06:55:46;101443.00;;;12.60
38114;BMP180;23926;53.222;6.354;2024-02-21T06:58:12;101428.00;;;12.70
38114;BMP180;23926;53.222;6.354;2024-02-21T07:00:39;101428.00;;;12.70
38114;BMP180;23926;53.222;6.354;2024-02-21T07:03:05;101438.00;;;12.70
38114;BMP180;23926;53.222;6.354;2024-02-21T07:05:30;101434.00;;;12.70
38114;BMP180;23926;53.222;6.354;2024-02-21T07:07:56;101432.00;;;12.60
38114;BMP180;23926;53.222;6.354;2024-02-21T07:10:21;101433.00;;;12.70
38114;BMP180;23926;53.222;6.354;2024-02-21T07:12:47;101431.00;;;12.60
38114;BMP180;23926;53.222;6.354;2024-02-21T07:15:13;101432.00;;;12.60
38114;BMP180;23926;53.222;6.354;2024-02-21T07:17:39;101417.00;;;12.60
38114;BMP180;23926;53.222;6.354;2024-02-21T07:20:05;101410.00;;;12.60
38114;BMP180;23926;53.222;6.354;2024-02-21T07:22:30;101418.00;;;12.40
38114;BMP180;23926;53.222;6.354;2024-02-21T07:24:56;101396.00;;;12.40
38114;BMP180;23926;53.222;6.354;2024-02-21T07:27:21;101401.00;;;12.30
38114;BMP180;23926;53.222;6.354;2024-02-21T07:29:46;101404.00;;;12.30
38114;BMP180;23926;53.222;6.354;2024-02-21T07:32:14;101402.00;;;12.30
38114;BMP180;23926;53.222;6.354;2024-02-21T07:34:39;101395.00;;;12.30
38114;BMP180;23926;53.222;6.354;2024-02-21T07:37:04;101389.00;;;12.30
38114;BMP180;23926;53.222;6.354;2024-02-21T07:39:30;101384.00;;;12.30
38114;BMP180;23926;53.222;6.354;2024-02-21T07:41:55;101378.00;;;12.40
38114;BMP180;23926;53.222;6.354;2024-02-21T07:44:20;101367.00;;;12.40
38114;BMP180;23926;53.222;6.354;2024-02-21T07:46:46;101370.00;;;12.40
38114;BMP180;23926;53.222;6.354;2024-02-21T07:49:11;101374.00;;;12.60
38114;BMP180;23926;53.222;6.354;2024-02-21T07:51:36;101372.00;;;12.90
38114;BMP180;23926;53.222;6.354;2024-02-21T07:54:02;101359.00;;;12.80
38114;BMP180;23926;53.222;6.354;2024-02-21T07:56:29;101375.00;;;12.80
38114;BMP180;23926;53.222;6.354;2024-02-21T07:58:54;101368.00;;;12.90
38114;BMP180;23926;53.222;6.354;2024-02-21T08:01:20;101374.00;;;12.90
38114;BMP180;23926;53.222;6.354;2024-02-21T08:03:46;101378.00;;;13.00
38114;BMP180;23926;53.222;6.354;2024-02-21T08:06:12;101376.00;;;13.00
38114;BMP180;23926;53.222;6.354;2024-02-21T08:08:38;101370.00;;;13.00
38114;BMP180;23926;53.222;6.354;2024-02-21T08:11:04;101379.00;;;13.00
38114;BMP180;23926;53.222;6.354;2024-02-21T08:13:29;101362.00;;;13.00
38114;BMP180;23926;53.222;6.354;2024-02-21T08:15:55;101356.00;;;12.90
38114;BMP180;23926;53.222;6.354;2024-02-21T08:18:20;101351.00;;;12.90
38114;BMP180;23926;53.222;6.354;2024-02-21T08:20:45;101356.00;;;12.90
38114;BMP180;23926;53.222;6.354;2024-02-21T08:23:12;101352.00;;;12.80
38114;BMP180;23926;53.222;6.354;2024-02-21T08:25:37;101352.00;;;12.70
38114;BMP180;23926;53.222;6.354;2024-02-21T08:28:04;101336.00;;;12.80
38114;BMP180;23926;53.222;6.354;2024-02-21T08:30:30;101346.00;;;12.90
38114;BMP180;23926;53.222;6.354;2024-02-21T08:32:56;101342.00;;;12.80
38114;BMP180;23926;53.222;6.354;2024-02-21T08:35:21;101332.00;;;12.80
38114;BMP180;23926;53.222;6.354;2024-02-21T08:37:50;101324.00;;;12.80
38114;BMP180;23926;53.222;6.354;2024-02-21T08:40:15;101323.00;;;12.90
38114;BMP180;23926;53.222;6.354;2024-02-21T08:42:44;101322.00;;;13.00
38114;BMP180;23926;53.222;6.354;2024-02-21T08:45:10;101310.00;;;13.00
38114;BMP180;23926;53.222;6.354;2024-02-21T08:47:35;101314.00;;;13.20
38114;BMP180;23926;53.222;6.354;2024-02-21T08:50:04;101332.00;;;13.20
38114;BMP180;23926;53.222;6.354;2024-02-21T08:52:31;101320.00;;;13.20
38114;BMP180;23926;53.222;6.354;2024-02-21T08:54:56;101307.00;;;13.20
38114;BMP180;23926;53.222;6.354;2024-02-21T08:57:22;101305.00;;;13.40
38114;BMP180;23926;53.222;6.354;2024-02-21T08:59:47;101283.00;;;13.50
38114;BMP180;23926;53.222;6.354;2024-02-21T09:02:13;101280.00;;;13.50
38114;BMP180;23926;53.222;6.354;2024-02-21T09:04:39;101282.00;;;13.40
38114;BMP180;23926;53.222;6.354;2024-02-21T09:07:04;101273.00;;;13.50
38114;BMP180;23926;53.222;6.354;2024-02-21T09:09:29;101278.00;;;13.60
38114;BMP180;23926;53.222;6.354;2024-02-21T09:11:55;101281.00;;;13.50
38114;BMP180;23926;53.222;6.354;2024-02-21T09:14:20;101285.00;;;13.40
38114;BMP180;23926;53.222;6.354;2024-02-21T09:16:46;101279.00;;;13.50
38114;BMP180;23926;53.222;6.354;2024-02-21T09:19:11;101291.00;;;13.60
38114;BMP180;23926;53.222;6.354;2024-02-21T09:21:37;101290.00;;;13.60
38114;BMP180;23926;53.222;6.354;2024-02-21T09:24:04;101290.00;;;13.60
38114;BMP180;23926;53.222;6.354;2024-02-21T09:26:30;101285.00;;;13.50
38114;BMP180;23926;53.222;6.354;2024-02-21T09:28:55;101299.00;;;13.60
38114;BMP180;23926;53.222;6.354;2024-02-21T09:31:20;101287.00;;;13.60
38114;BMP180;23926;53.222;6.354;2024-02-21T09:33:46;101289.00;;;13.60
38114;BMP180;23926;53.222;6.354;2024-02-21T09:36:11;101275.00;;;13.60
38114;BMP180;23926;53.222;6.354;2024-02-21T09:38:36;101283.00;;;13.40
38114;BMP180;23926;53.222;6.354;2024-02-21T09:43:41;101268.00;;;13.60
38114;BMP180;23926;53.222;6.354;2024-02-21T09:46:07;101262.00;;;13.70
38114;BMP180;23926;53.222;6.354;2024-02-21T09:48:56;101261.00;;;13.60
38114;BMP180;23926;53.222;6.354;2024-02-21T09:51:24;101259.00;;;13.60
38114;BMP180;23926;53.222;6.354;2024-02-21T09:53:53;101259.00;;;13.70
38114;BMP180;23926;53.222;6.354;2024-02-21T09:56:18;101240.00;;;13.70
38114;BMP180;23926;53.222;6.354;2024-02-21T09:58:44;101230.00;;;13.80
38114;BMP180;23926;53.222;6.354;2024-02-21T10:01:09;101237.00;;;13.80
38114;BMP180;23926;53.222;6.354;2024-02-21T10:03:34;101231.00;;;13.90
38114;BMP180;23926;53.222;6.354;2024-02-21T10:06:00;101228.00;;;14.00
38114;BMP180;23926;53.222;6.354;2024-02-21T10:08:26;101221.00;;;13.90
38114;BMP180;23926;53.222;6.354;2024-02-21T10:10:52;101229.00;;;14.00
38114;BMP180;23926;53.222;6.354;2024-02-21T10:13:30;101217.00;;;13.90
38114;BMP180;23926;53.222;6.354;2024-02-21T10:16:08;101211.00;;;13.80
38114;BMP180;23926;53.222;6.354;2024-02-21T10:18:34;101210.00;;;13.80
38114;BMP180;23926;53.222;6.354;2024-02-21T10:21:01;101201.00;;;13.70
38114;BMP180;23926;53.222;6.354;2024-02-21T10:23:26;101189.00;;;13.80
38114;BMP180;23926;53.222;6.354;2024-02-21T10:25:52;101189.00;;;13.80
38114;BMP180;23926;53.222;6.354;2024-02-21T10:28:17;101184.00;;;14.00
38114;BMP180;23926;53.222;6.354;2024-02-21T10:30:51;101183.00;;;14.10
38114;BMP180;23926;53.222;6.354;2024-02-21T10:33:17;101182.00;;;14.10
38114;BMP180;23926;53.222;6.354;2024-02-21T10:35:46;101178.00;;;14.00
38114;BMP180;23926;53.222;6.354;2024-02-21T10:38:12;101178.00;;;14.10
38114;BMP180;23926;53.222;6.354;2024-02-21T10:40:38;101173.00;;;14.10
38114;BMP180;23926;53.222;6.354;2024-02-21T10:43:05;101168.00;;;14.00
38114;BMP180;23926;53.222;6.354;2024-02-21T10:45:36;101165.00;;;14.10
38114;BMP180;23926;53.222;6.354;2024-02-21T10:48:11;101153.00;;;14.10
38114;BMP180;23926;53.222;6.354;2024-02-21T10:51:02;101157.00;;;14.30
38114;BMP180;23926;53.222;6.354;2024-02-21T10:56:32;101143.00;;;14.80
38114;BMP180;23926;53.222;6.354;2024-02-21T10:59:05;101124.00;;;15.00
38114;BMP180;23926;53.222;6.354;2024-02-21T11:01:31;101145.00;;;15.10
38114;BMP180;23926;53.222;6.354;2024-02-21T11:03:58;101139.00;;;15.20
38114;BMP180;23926;53.222;6.354;2024-02-21T11:06:26;101137.00;;;15.20
38114;BMP180;23926;53.222;6.354;2024-02-21T11:09:19;101129.00;;;15.00
38114;BMP180;23926;53.222;6.354;2024-02-21T11:11:56;101128.00;;;15.10
38114;BMP180;23926;53.222;6.354;2024-02-21T11:14:26;101111.00;;;15.20
38114;BMP180;23926;53.222;6.354;2024-02-21T11:16:52;101108.00;;;15.10
38114;BMP180;23926;53.222;6.354;2024-02-21T11:19:27;101104.00;;;15.00
38114;BMP180;23926;53.222;6.354;2024-02-21T11:21:54;101113.00;;;14.90
38114;BMP180;23926;53.222;6.354;2024-02-21T11:24:31;101107.00;;;14.80
38114;BMP180;23926;53.222;6.354;2024-02-21T11:27:18;101110.00;;;14.70
38114;BMP180;23926;53.222;6.354;2024-02-21T11:29:55;101083.00;;;14.80
38114;BMP180;23926;53.222;6.354;2024-02-21T11:32:21;101074.00;;;14.70
38114;BMP180;23926;53.222;6.354;2024-02-21T11:34:57;101075.00;;;14.70
38114;BMP180;23926;53.222;6.354;2024-02-21T11:37:27;101058.00;;;14.50
38114;BMP180;23926;53.222;6.354;2024-02-21T11:39:56;101051.00;;;14.60
38114;BMP180;23926;53.222;6.354;2024-02-21T11:42:22;101056.00;;;14.70
38114;BMP180;23926;53.222;6.354;2024-02-21T11:44:49;101033.00;;;14.60
38114;BMP180;23926;53.222;6.354;2024-02-21T11:47:15;101034.00;;;14.40
38114;BMP180;23926;53.222;6.354;2024-02-21T11:49:47;101037.00;;;14.50
38114;BMP180;23926;53.222;6.354;2024-02-21T11:52:21;101014.00;;;14.40
38114;BMP180;23926;53.222;6.354;2024-02-21T11:54:47;101024.00;;;14.40
38114;BMP180;23926;53.222;6.354;2024-02-21T11:57:13;100998.00;;;14.50
38114;BMP180;23926;53.222;6.354;2024-02-21T11:59:40;100992.00;;;14.60
38114;BMP180;23926;53.222;6.354;2024-02-21T12:02:06;100983.00;;;14.60
38114;BMP180;23926;53.222;6.354;2024-02-21T12:04:32;100981.00;;;14.70
38114;BMP180;23926;53.222;6.354;2024-02-21T12:06:58;100971.00;;;14.70
38114;BMP180;23926;53.222;6.354;2024-02-21T12:09:24;100971.00;;;14.70
38114;BMP180;23926;53.222;6.354;2024-02-21T12:12:01;100969.00;;;14.50
38114;BMP180;23926;53.222;6.354;2024-02-21T12:14:29;100961.00;;;14.40
38114;BMP180;23926;53.222;6.354;2024-02-21T12:16:55;100963.00;;;14.50
38114;BMP180;23926;53.222;6.354;2024-02-21T12:19:20;100949.00;;;14.40
38114;BMP180;23926;53.222;6.354;2024-02-21T12:21:48;100941.00;;;14.50
38114;BMP180;23926;53.222;6.354;2024-02-21T12:24:16;100940.00;;;14.50
38114;BMP180;23926;53.222;6.354;2024-02-21T12:26:42;100921.00;;;14.60
38114;BMP180;23926;53.222;6.354;2024-02-21T12:29:08;100908.00;;;14.60
38114;BMP180;23926;53.222;6.354;2024-02-21T12:31:37;100903.00;;;14.70
38114;BMP180;23926;53.222;6.354;2024-02-21T12:34:03;100909.00;;;14.80
38114;BMP180;23926;53.222;6.354;2024-02-21T12:36:29;100920.00;;;14.70
38114;BMP180;23926;53.222;6.354;2024-02-21T12:38:55;100914.00;;;14.80
38114;BMP180;23926;53.222;6.354;2024-02-21T12:41:20;100911.00;;;14.90
38114;BMP180;23926;53.222;6.354;2024-02-21T12:43:46;100916.00;;;14.90
38114;BMP180;23926;53.222;6.354;2024-02-21T12:46:12;100903.00;;;14.90
38114;BMP180;23926;53.222;6.354;2024-02-21T12:48:37;100899.00;;;14.70
38114;BMP180;23926;53.222;6.354;2024-02-21T12:51:03;100884.00;;;14.70
38114;BMP180;23926;53.222;6.354;2024-02-21T12:53:29;100873.00;;;14.60
38114;BMP180;23926;53.222;6.354;2024-02-21T12:55:55;100867.00;;;14.60
38114;BMP180;23926;53.222;6.354;2024-02-21T12:58:21;100853.00;;;14.60
38114;BMP180;23926;53.222;6.354;2024-02-21T13:00:47;100853.00;;;14.70
38114;BMP180;23926;53.222;6.354;2024-02-21T13:03:14;100852.00;;;14.70
38114;BMP180;23926;53.222;6.354;2024-02-21T13:05:39;100833.00;;;14.70
38114;BMP180;23926;53.222;6.354;2024-02-21T13:08:09;100826.00;;;14.70
38114;BMP180;23926;53.222;6.354;2024-02-21T13:10:34;100805.00;;;14.60
38114;BMP180;23926;53.222;6.354;2024-02-21T13:13:01;100802.00;;;14.70
38114;BMP180;23926;53.222;6.354;2024-02-21T13:15:27;100793.00;;;14.80
38114;BMP180;23926;53.222;6.354;2024-02-21T13:17:56;100769.00;;;14.90
38114;BMP180;23926;53.222;6.354;2024-02-21T13:20:23;100768.00;;;15.10
38114;BMP180;23926;53.222;6.354;2024-02-21T13:22:48;100767.00;;;15.20
38114;BMP180;23926;53.222;6.354;2024-02-21T13:25:14;100737.00;;;15.30
38114;BMP180;23926;53.222;6.354;2024-02-21T13:27:45;100731.00;;;15.30
38114;BMP180;23926;53.222;6.354;2024-02-21T13:30:11;100718.00;;;15.30
38114;BMP180;23926;53.222;6.354;2024-02-21T13:32:36;100717.00;;;15.00
38114;BMP180;23926;53.222;6.354;2024-02-21T13:35:03;100712.00;;;15.10
38114;BMP180;23926;53.222;6.354;2024-02-21T13:37:28;100697.00;;;15.00
38114;BMP180;23926;53.222;6.354;2024-02-21T13:39:54;100672.00;;;15.10
38114;BMP180;23926;53.222;6.354;2024-02-21T13:42:20;100685.00;;;15.00
38114;BMP180;23926;53.222;6.354;2024-02-21T13:44:45;100685.00;;;14.90
38114;BMP180;23926;53.222;6.354;2024-02-21T13:47:14;100673.00;;;14.90
38114;BMP180;23926;53.222;6.354;2024-02-21T13:49:40;100665.00;;;14.90
38114;BMP180;23926;53.222;6.354;2024-02-21T13:52:05;100664.00;;;14.80
38114;BMP180;23926;53.222;6.354;2024-02-21T13:54:31;100677.00;;;14.80
38114;BMP180;23926;53.222;6.354;2024-02-21T13:56:56;100666.00;;;14.80